Terminal Aerodrome Forecast
Issued by NWS

Home | Current Version | Previous Version | Text Only | Print | Product List | Glossary On
Versions: 1 2 3 4 5 6 7 8 9 10 11 12 13 14 15 16 17 18 19 20
000
FTUS42 KFFC 260203 AAA
TAFFTY
TAF AMD
KFTY 260203Z 2602/2624 20008KT P6SM -RA SCT035 BKN060
      TEMPO 2602/2604 29015G35KT 4SM -RA BKN030
     FM260500 24007KT P6SM -RA OVC025
     FM260900 27008KT P6SM -RA OVC012
     FM261500 31012G22KT P6SM BKN025
     FM261800 31016G24KT P6SM BKN080=

USA.gov is the U.S. government's official web portal to all federal, state and local government web resources and services.